createdAt,value
2019-06-26T00:01:08.828Z,59.74
2019-06-26T00:03:35.126Z,59.45
2019-06-26T00:06:01.410Z,60.40
2019-06-26T00:08:27.660Z,60.01
2019-06-26T00:10:53.845Z,62.78
2019-06-26T00:13:26.143Z,63.47
2019-06-26T00:15:48.026Z,64.76
2019-06-26T00:18:14.314Z,64.72
2019-06-26T00:20:40.597Z,64.46
2019-06-26T00:23:06.795Z,66.03
2019-06-26T00:25:33.105Z,67.65
2019-06-26T00:27:59.320Z,67.05
2019-06-26T00:30:25.535Z,67.35
2019-06-26T00:32:51.709Z,65.74
2019-06-26T00:35:17.992Z,65.82
2019-06-26T00:37:44.182Z,67.17
2019-06-26T00:40:11.749Z,66.14
2019-06-26T00:42:37.933Z,66.70
2019-06-26T00:45:05.251Z,65.36
2019-06-26T00:47:31.610Z,65.26
2019-06-26T00:49:57.698Z,66.26
2019-06-26T00:52:23.741Z,67.57
2019-06-26T00:54:49.964Z,66.78
2019-06-26T00:57:16.143Z,67.07
2019-06-26T00:59:42.337Z,67.48
2019-06-26T01:02:08.606Z,67.02
2019-06-26T01:04:39.697Z,66.94
2019-06-26T01:07:05.778Z,66.85
2019-06-26T01:09:31.961Z,67.46
2019-06-26T01:11:58.474Z,67.83
2019-06-26T01:14:24.659Z,68.05
2019-06-26T01:16:50.714Z,67.15
2019-06-26T01:19:17.005Z,67.30
2019-06-26T01:21:43.089Z,68.54
2019-06-26T01:24:09.273Z,68.27
2019-06-26T01:26:35.551Z,67.17
2019-06-26T01:29:01.850Z,67.38
2019-06-26T01:31:29.101Z,67.21
2019-06-26T01:33:55.300Z,67.96
2019-06-26T01:36:21.481Z,67.91
2019-06-26T01:38:47.685Z,67.97
2019-06-26T01:41:13.956Z,67.54
2019-06-26T01:43:40.241Z,68.02
2019-06-26T01:46:06.426Z,68.11
2019-06-26T01:48:32.747Z,68.18
2019-06-26T01:50:58.885Z,68.08
2019-06-26T01:53:25.038Z,68.13
2019-06-26T01:55:51.250Z,67.34
2019-06-26T01:58:17.431Z,66.77
2019-06-26T02:00:43.535Z,67.57
2019-06-26T02:03:09.778Z,66.91
2019-06-26T02:05:35.960Z,67.16
2019-06-26T02:08:02.245Z,68.39
2019-06-26T02:10:28.348Z,69.02
2019-06-26T02:12:54.640Z,70.00
2019-06-26T02:15:21.145Z,69.67
2019-06-26T02:17:47.320Z,69.50
2019-06-26T02:20:13.712Z,69.86
2019-06-26T02:22:39.877Z,69.56
2019-06-26T02:25:06.769Z,69.19
2019-06-26T02:27:33.376Z,69.12
2019-06-26T02:29:59.458Z,69.91
2019-06-26T02:32:25.621Z,69.93
2019-06-26T02:34:52.404Z,69.71
2019-06-26T02:37:18.572Z,69.35
2019-06-26T02:39:44.856Z,69.87
2019-06-26T02:42:11.141Z,69.46
2019-06-26T02:44:52.376Z,69.15
2019-06-26T02:47:18.294Z,70.05
2019-06-26T02:49:33.734Z,71.34
2019-06-26T02:51:59.838Z,72.45
2019-06-26T02:54:26.155Z,72.03
2019-06-26T02:56:53.784Z,71.47
2019-06-26T02:59:19.942Z,71.42
2019-06-26T03:01:46.367Z,70.93
2019-06-26T03:04:12.524Z,71.06
2019-06-26T03:06:38.714Z,70.75
2019-06-26T03:09:05.963Z,70.58
2019-06-26T03:11:32.274Z,70.72
2019-06-26T03:13:58.847Z,70.96
2019-06-26T03:16:25.039Z,71.12
2019-06-26T03:18:51.213Z,70.67
2019-06-26T03:21:17.625Z,70.69
2019-06-26T03:23:44.785Z,70.68
2019-06-26T03:26:11.119Z,71.06
2019-06-26T03:28:37.167Z,70.74
2019-06-26T03:31:03.570Z,70.75
2019-06-26T03:33:29.736Z,70.79
2019-06-26T03:35:56.011Z,70.38
2019-06-26T03:38:22.192Z,70.46
2019-06-26T03:40:48.493Z,70.77
2019-06-26T03:43:14.651Z,71.46
2019-06-26T03:45:41.033Z,73.15
2019-06-26T03:48:07.217Z,73.37
2019-06-26T03:50:33.626Z,73.57
2019-06-26T03:52:59.899Z,73.93
2019-06-26T03:55:26.045Z,73.10
2019-06-26T03:57:52.265Z,73.17
2019-06-26T04:00:37.066Z,72.93
2019-06-26T04:03:03.444Z,72.68
2019-06-26T04:05:29.821Z,72.81
2019-06-26T04:07:56.216Z,72.68
2019-06-26T04:10:22.275Z,72.91
2019-06-26T04:12:48.583Z,73.93
2019-06-26T04:15:15.073Z,74.71
2019-06-26T04:17:41.859Z,74.67
2019-06-26T04:20:09.336Z,73.85
2019-06-26T04:22:35.727Z,73.53
2019-06-26T04:25:06.444Z,73.35
2019-06-26T04:27:32.677Z,73.11
2019-06-26T04:29:58.740Z,73.58
2019-06-26T04:32:25.007Z,72.89
2019-06-26T04:34:54.370Z,71.90
2019-06-26T04:37:19.387Z,71.11
2019-06-26T04:39:45.541Z,70.86
2019-06-26T04:42:11.780Z,70.75
2019-06-26T04:44:37.847Z,71.21
2019-06-26T04:47:04.863Z,71.43
2019-06-26T04:49:31.037Z,70.88
2019-06-26T04:51:57.267Z,71.73
2019-06-26T04:54:23.347Z,71.47
2019-06-26T04:56:49.599Z,71.48
2019-06-26T04:59:15.864Z,71.01
2019-06-26T05:01:42.123Z,71.47
2019-06-26T05:04:08.293Z,70.57
2019-06-26T05:06:34.649Z,70.79
2019-06-26T05:09:01.008Z,70.38
2019-06-26T05:11:29.111Z,69.61
2019-06-26T05:13:55.311Z,69.63
2019-06-26T05:16:21.580Z,70.23
2019-06-26T05:18:48.754Z,70.42
2019-06-26T05:21:15.327Z,69.44
2019-06-26T05:23:41.507Z,69.25
2019-06-26T05:26:07.670Z,69.27
2019-06-26T05:28:33.982Z,70.16
2019-06-26T05:31:00.221Z,68.95
2019-06-26T05:33:26.399Z,69.28
2019-06-26T05:35:52.589Z,69.30
2019-06-26T05:38:18.806Z,68.76
2019-06-26T05:40:44.989Z,68.16
2019-06-26T05:43:11.332Z,67.93
2019-06-26T05:45:37.704Z,67.41
2019-06-26T05:48:03.922Z,66.84
2019-06-26T05:50:30.078Z,66.91
2019-06-26T05:52:56.479Z,67.00
2019-06-26T05:55:22.754Z,66.18
2019-06-26T05:57:49.077Z,65.96
2019-06-26T06:00:16.035Z,65.94
2019-06-26T06:02:42.381Z,65.41
2019-06-26T06:05:09.071Z,65.80
2019-06-26T06:07:35.478Z,65.29
2019-06-26T06:10:02.540Z,65.64
2019-06-26T06:12:29.108Z,65.77
2019-06-26T06:14:55.225Z,65.46
2019-06-26T06:17:21.494Z,64.94
2019-06-26T06:19:48.006Z,64.27
2019-06-26T06:22:14.351Z,64.44
2019-06-26T06:24:40.536Z,64.25
2019-06-26T06:27:06.726Z,63.90
2019-06-26T06:29:33.004Z,63.14
2019-06-26T06:31:59.495Z,62.62
2019-06-26T06:34:25.764Z,63.02
2019-06-26T06:36:51.847Z,62.86
2019-06-26T06:39:17.927Z,61.97
2019-06-26T06:41:44.236Z,61.39
2019-06-26T06:44:10.387Z,62.84
2019-06-26T06:46:36.609Z,61.69
2019-06-26T06:49:03.940Z,61.59
2019-06-26T06:51:30.185Z,61.38
2019-06-26T06:53:56.384Z,60.98
2019-06-26T06:56:22.491Z,60.90
2019-06-26T06:58:49.885Z,60.85
2019-06-26T07:01:16.295Z,60.94
2019-06-26T07:03:42.591Z,60.75
2019-06-26T07:06:08.807Z,60.80
2019-06-26T07:08:35.109Z,61.03
2019-06-26T07:11:01.176Z,62.01
2019-06-26T07:13:27.455Z,61.87
2019-06-26T07:15:53.746Z,61.90
2019-06-26T07:18:19.964Z,61.52
2019-06-26T07:20:46.232Z,61.84
2019-06-26T07:23:12.421Z,62.44
2019-06-26T07:25:38.696Z,61.28
2019-06-26T07:28:05.077Z,61.63
2019-06-26T07:30:31.330Z,60.20
2019-06-26T07:32:57.496Z,59.42
2019-06-26T07:35:23.736Z,59.37
2019-06-26T07:37:49.799Z,59.48
2019-06-26T07:40:16.805Z,59.17
2019-06-26T07:42:43.094Z,59.57
2019-06-26T07:45:09.597Z,57.88
2019-06-26T07:47:43.134Z,59.06
2019-06-26T07:50:05.665Z,59.21
2019-06-26T07:52:31.813Z,57.17
2019-06-26T07:54:58.333Z,56.06
2019-06-26T07:57:24.609Z,56.00
2019-06-26T07:59:51.028Z,55.23
2019-06-26T08:02:17.291Z,56.25
2019-06-26T08:04:43.594Z,55.38
2019-06-26T08:07:09.694Z,54.37
2019-06-26T08:09:35.993Z,54.41
2019-06-26T08:12:02.167Z,55.52
2019-06-26T08:14:28.768Z,55.56
2019-06-26T08:16:54.907Z,54.98
2019-06-26T08:19:21.084Z,55.62
2019-06-26T08:21:47.269Z,54.22
2019-06-26T08:24:13.695Z,53.41
2019-06-26T08:26:40.085Z,53.13
2019-06-26T08:29:06.366Z,55.16
2019-06-26T08:31:32.462Z,52.63
2019-06-26T08:33:59.063Z,53.87
2019-06-26T08:36:25.291Z,54.48
2019-06-26T08:38:51.455Z,53.15
2019-06-26T08:41:17.651Z,53.40
2019-06-26T08:43:44.064Z,53.36
2019-06-26T08:46:10.291Z,52.79
2019-06-26T08:48:40.010Z,53.39
2019-06-26T08:51:04.652Z,52.10
2019-06-26T08:53:30.734Z,52.69
2019-06-26T08:55:57.049Z,50.97
2019-06-26T08:58:23.198Z,49.73
2019-06-26T09:00:49.517Z,48.36
2019-06-26T09:03:16.787Z,47.74
2019-06-26T09:05:47.929Z,47.98
2019-06-26T09:08:12.207Z,46.90
2019-06-26T09:10:38.606Z,48.77
2019-06-26T09:13:04.885Z,48.63
2019-06-26T09:15:31.328Z,47.90
2019-06-26T09:17:57.516Z,47.33
2019-06-26T09:20:37.929Z,46.80
2019-06-26T09:23:04.328Z,48.01
2019-06-26T09:25:30.440Z,47.44
2019-06-26T09:27:56.628Z,47.80
2019-06-26T09:30:23.375Z,45.96
2019-06-26T09:32:49.569Z,44.34
2019-06-26T09:35:15.981Z,43.13
2019-06-26T09:37:42.393Z,42.79
2019-06-26T09:40:08.991Z,42.88
2019-06-26T09:42:35.195Z,44.88
2019-06-26T09:45:02.094Z,44.35
2019-06-26T09:47:30.966Z,42.91
2019-06-26T09:49:56.363Z,40.92
2019-06-26T09:52:22.729Z,41.13
2019-06-26T09:54:48.995Z,41.53
2019-06-26T09:57:15.291Z,40.97
2019-06-26T09:59:41.360Z,38.50
2019-06-26T10:02:07.586Z,39.64
2019-06-26T10:04:33.828Z,40.13
2019-06-26T10:07:00.049Z,38.75
2019-06-26T10:09:26.300Z,38.58
2019-06-26T10:11:52.553Z,39.21
2019-06-26T10:14:18.607Z,38.14
2019-06-26T10:16:44.709Z,38.33
2019-06-26T10:19:11.241Z,37.99
2019-06-26T10:21:37.360Z,36.23
2019-06-26T10:24:03.708Z,35.38
2019-06-26T10:26:32.419Z,35.65
2019-06-26T10:28:58.104Z,37.47
2019-06-26T10:31:24.392Z,39.54
2019-06-26T10:33:50.658Z,38.49
2019-06-26T10:36:16.852Z,37.56
2019-06-26T10:38:43.150Z,37.01
2019-06-26T10:41:09.347Z,37.17
2019-06-26T10:43:35.545Z,37.17
2019-06-26T10:46:02.812Z,37.26
2019-06-26T10:48:29.411Z,36.37
2019-06-26T10:50:58.913Z,36.99
2019-06-26T10:53:24.014Z,35.81
2019-06-26T10:55:50.300Z,36.10
2019-06-26T10:58:16.579Z,35.62
2019-06-26T11:00:42.758Z,36.10
2019-06-26T11:03:08.962Z,36.63
2019-06-26T11:05:35.138Z,37.83
2019-06-26T11:08:01.531Z,38.51
2019-06-26T11:10:27.912Z,40.38
2019-06-26T11:12:54.209Z,39.17
2019-06-26T11:15:22.086Z,39.28
2019-06-26T11:17:48.280Z,37.76
2019-06-26T11:20:14.968Z,37.34
2019-06-26T11:22:41.077Z,36.20
2019-06-26T11:25:08.098Z,35.81
2019-06-26T11:27:34.496Z,35.20
2019-06-26T11:30:00.598Z,35.94
2019-06-26T11:32:26.705Z,36.44
2019-06-26T11:34:52.989Z,37.00
2019-06-26T11:37:22.807Z,35.17
2019-06-26T11:39:47.387Z,36.33
2019-06-26T11:42:13.625Z,37.18
2019-06-26T11:44:40.015Z,36.58
2019-06-26T11:47:06.231Z,36.98
2019-06-26T11:49:32.605Z,36.47
2019-06-26T11:51:58.945Z,36.40
2019-06-26T11:54:25.576Z,36.42
2019-06-26T11:56:51.889Z,36.62
2019-06-26T11:59:18.255Z,34.32
2019-06-26T12:01:44.333Z,35.47
2019-06-26T12:04:10.430Z,36.04
2019-06-26T12:06:36.691Z,35.39
2019-06-26T12:09:06.009Z,35.04
2019-06-26T12:11:32.289Z,35.43
2019-06-26T12:13:59.682Z,36.87
2019-06-26T12:16:25.744Z,36.63
2019-06-26T12:18:51.949Z,36.61
2019-06-26T12:21:18.246Z,36.36
2019-06-26T12:23:44.337Z,37.73
2019-06-26T12:26:10.799Z,37.09
2019-06-26T12:28:37.239Z,37.84
2019-06-26T12:31:03.582Z,38.57
2019-06-26T12:33:29.772Z,38.50
2019-06-26T12:35:55.975Z,37.79
2019-06-26T12:38:22.192Z,36.84
2019-06-26T12:40:48.486Z,36.02
2019-06-26T12:43:15.128Z,37.26
2019-06-26T12:45:41.446Z,35.92
2019-06-26T12:48:07.735Z,37.20
2019-06-26T12:50:35.971Z,36.07
2019-06-26T12:53:01.943Z,36.08
2019-06-26T12:55:32.603Z,37.30
2019-06-26T12:58:11.917Z,36.69
2019-06-26T13:00:24.588Z,36.26
2019-06-26T13:02:50.881Z,35.09
2019-06-26T13:05:17.377Z,36.72
2019-06-26T13:07:43.687Z,35.97
2019-06-26T13:10:10.926Z,37.33
2019-06-26T13:12:37.141Z,36.67
2019-06-26T13:15:07.127Z,38.20
2019-06-26T13:17:33.501Z,37.02
2019-06-26T13:20:00.827Z,37.12
2019-06-26T13:22:26.990Z,39.27
2019-06-26T13:24:53.344Z,37.51
2019-06-26T13:27:19.489Z,38.33
2019-06-26T13:29:45.937Z,38.19
2019-06-26T13:32:12.099Z,36.45
2019-06-26T13:34:38.489Z,36.11
2019-06-26T13:37:07.310Z,36.31
2019-06-26T13:39:32.944Z,37.16
2019-06-26T13:41:59.225Z,37.41
2019-06-26T13:44:25.541Z,37.29
2019-06-26T13:46:51.640Z,36.85
2019-06-26T13:49:17.719Z,35.74
2019-06-26T13:51:44.057Z,37.75
2019-06-26T13:54:10.556Z,36.89
2019-06-26T13:56:37.045Z,37.64
2019-06-26T13:59:07.143Z,38.34
2019-06-26T14:01:31.749Z,37.57
2019-06-26T14:03:57.829Z,39.81
2019-06-26T14:06:24.040Z,39.49
2019-06-26T14:08:50.392Z,40.00
2019-06-26T14:11:16.601Z,40.92
2019-06-26T14:13:42.678Z,40.95
2019-06-26T14:16:09.084Z,41.92
2019-06-26T14:18:35.308Z,41.52
2019-06-26T14:21:01.710Z,42.84
2019-06-26T14:23:27.975Z,42.60
2019-06-26T14:25:54.154Z,42.72
2019-06-26T14:28:20.427Z,44.05
2019-06-26T14:30:46.660Z,43.31
2019-06-26T14:33:12.757Z,44.78
2019-06-26T14:35:38.875Z,42.68
2019-06-26T14:38:05.268Z,43.93
2019-06-26T14:40:31.394Z,44.00
2019-06-26T14:42:57.518Z,43.52
2019-06-26T14:45:23.638Z,41.58
2019-06-26T14:47:49.818Z,42.44
2019-06-26T14:50:17.588Z,42.79
2019-06-26T14:52:45.958Z,43.32
2019-06-26T14:55:11.942Z,43.40
2019-06-26T14:57:38.210Z,43.74
2019-06-26T15:00:05.510Z,44.02
2019-06-26T15:02:32.092Z,45.10
2019-06-26T15:04:58.406Z,46.13
2019-06-26T15:07:24.634Z,45.78
2019-06-26T15:09:50.827Z,45.65
2019-06-26T15:12:17.008Z,43.99
2019-06-26T15:14:43.706Z,43.73
2019-06-26T15:17:10.052Z,44.19
2019-06-26T15:19:36.414Z,44.46
2019-06-26T15:22:02.959Z,44.95
2019-06-26T15:24:29.241Z,45.60
2019-06-26T15:26:55.594Z,44.55
2019-06-26T15:29:21.761Z,44.47
2019-06-26T15:31:48.070Z,44.92
2019-06-26T15:34:14.920Z,46.07
2019-06-26T15:36:41.203Z,45.28
2019-06-26T15:39:08.209Z,46.72
2019-06-26T15:41:34.522Z,45.01
2019-06-26T15:44:00.723Z,45.95
2019-06-26T15:46:26.956Z,45.22
2019-06-26T15:48:53.179Z,43.99
2019-06-26T15:51:19.586Z,44.87
2019-06-26T15:53:45.756Z,44.29
2019-06-26T15:56:11.966Z,44.52
2019-06-26T15:58:38.257Z,44.37
2019-06-26T16:01:04.664Z,45.50
2019-06-26T16:03:32.734Z,45.98
2019-06-26T16:05:59.052Z,46.32
2019-06-26T16:08:25.251Z,46.40
2019-06-26T16:10:52.078Z,46.83
2019-06-26T16:13:18.267Z,46.93
2019-06-26T16:15:45.360Z,47.90
2019-06-26T16:18:16.199Z,47.73
2019-06-26T16:20:42.393Z,47.59
2019-06-26T16:23:09.832Z,48.08
2019-06-26T16:25:35.994Z,47.69
2019-06-26T16:28:05.710Z,48.47
2019-06-26T16:30:30.393Z,47.50
2019-06-26T16:32:57.081Z,48.13
2019-06-26T16:35:23.383Z,47.37
2019-06-26T16:37:49.486Z,47.08
2019-06-26T16:40:16.302Z,48.14
2019-06-26T16:42:42.588Z,47.43
2019-06-26T16:45:08.975Z,47.42
2019-06-26T16:47:35.093Z,48.02
2019-06-26T16:50:03.270Z,47.68
2019-06-26T16:52:29.516Z,47.74
2019-06-26T16:54:55.614Z,48.28
2019-06-26T16:57:22.025Z,48.99
2019-06-26T16:59:48.211Z,49.33
2019-06-26T17:02:14.403Z,49.08
2019-06-26T17:04:40.739Z,50.36
2019-06-26T17:07:07.002Z,50.59
2019-06-26T17:09:33.418Z,49.47
2019-06-26T17:11:59.615Z,50.06
2019-06-26T17:14:25.859Z,50.26
2019-06-26T17:16:52.069Z,51.16
2019-06-26T17:19:18.672Z,50.42
2019-06-26T17:21:45.163Z,50.62
2019-06-26T17:24:11.465Z,51.22
2019-06-26T17:26:37.544Z,50.33
2019-06-26T17:29:03.830Z,50.88
2019-06-26T17:31:30.033Z,50.69
2019-06-26T17:33:56.136Z,51.08
2019-06-26T17:36:22.435Z,51.10
2019-06-26T17:38:48.934Z,51.35
2019-06-26T17:41:15.119Z,51.29
2019-06-26T17:43:41.340Z,51.68
2019-06-26T17:46:07.632Z,51.49
2019-06-26T17:48:33.862Z,51.38
2019-06-26T17:51:00.140Z,51.74
2019-06-26T17:53:26.474Z,51.10
2019-06-26T17:55:52.863Z,50.67
2019-06-26T17:58:19.172Z,50.87
2019-06-26T18:00:45.458Z,50.96
2019-06-26T18:03:11.849Z,51.45
2019-06-26T18:05:40.448Z,51.42
2019-06-26T18:08:06.693Z,51.76
2019-06-26T18:10:32.902Z,51.37
2019-06-26T18:12:59.128Z,51.83
2019-06-26T18:15:25.743Z,51.87
2019-06-26T18:17:52.006Z,51.46
2019-06-26T18:20:18.522Z,51.76
2019-06-26T18:22:44.848Z,51.64
2019-06-26T18:25:16.443Z,51.94
2019-06-26T18:27:41.026Z,52.24
2019-06-26T18:30:09.430Z,52.23
2019-06-26T18:32:35.613Z,52.06
2019-06-26T18:35:05.416Z,52.08
2019-06-26T18:37:31.591Z,52.43
2019-06-26T18:39:57.909Z,52.34
2019-06-26T18:42:24.122Z,52.89
2019-06-26T18:44:50.353Z,53.21
2019-06-26T18:47:16.640Z,53.26
2019-06-26T18:49:42.837Z,54.35
2019-06-26T18:52:09.079Z,53.93
2019-06-26T18:54:35.407Z,53.92
2019-06-26T18:57:01.519Z,54.24
2019-06-26T18:59:27.641Z,53.87
2019-06-26T19:01:54.222Z,54.43
2019-06-26T19:04:22.441Z,54.05
2019-06-26T19:06:48.696Z,54.07
2019-06-26T19:09:14.974Z,54.52
2019-06-26T19:11:41.231Z,54.74
2019-06-26T19:14:07.588Z,54.16
2019-06-26T19:16:36.272Z,53.23
2019-06-26T19:19:02.087Z,53.56
2019-06-26T19:21:28.432Z,53.70
2019-06-26T19:24:09.187Z,54.05
2019-06-26T19:26:22.970Z,53.82
2019-06-26T19:28:49.323Z,53.44
2019-06-26T19:31:15.537Z,54.08
2019-06-26T19:33:45.444Z,53.89
2019-06-26T19:36:10.352Z,53.72
2019-06-26T19:38:36.625Z,54.39
2019-06-26T19:41:03.450Z,53.96
2019-06-26T19:43:30.876Z,54.31
2019-06-26T19:45:57.294Z,54.36
2019-06-26T19:48:23.657Z,54.59
2019-06-26T19:50:49.782Z,54.65
2019-06-26T19:53:16.109Z,55.15
2019-06-26T19:55:42.433Z,55.58
2019-06-26T19:58:08.691Z,56.28
2019-06-26T20:00:34.996Z,55.98
2019-06-26T20:03:01.208Z,55.86
2019-06-26T20:05:27.508Z,55.95
2019-06-26T20:07:53.828Z,56.67
2019-06-26T20:10:20.279Z,55.97
2019-06-26T20:12:46.597Z,55.73
2019-06-26T20:15:13.032Z,55.37
2019-06-26T20:17:39.447Z,55.68
2019-06-26T20:20:07.361Z,55.79
2019-06-26T20:22:33.875Z,56.26
2019-06-26T20:25:00.291Z,56.27
2019-06-26T20:27:26.547Z,56.74
2019-06-26T20:29:52.843Z,56.71
2019-06-26T20:32:18.972Z,56.61
2019-06-26T20:34:45.088Z,57.35
2019-06-26T20:37:11.214Z,58.08
2019-06-26T20:39:37.390Z,58.40
2019-06-26T20:42:03.707Z,58.66
2019-06-26T20:44:29.882Z,58.59
2019-06-26T20:46:56.041Z,58.39
2019-06-26T20:49:22.106Z,58.51
2019-06-26T20:51:48.307Z,58.29
2019-06-26T20:54:14.493Z,58.93
2019-06-26T20:56:40.697Z,59.07
2019-06-26T20:59:06.813Z,59.47
2019-06-26T21:01:33.044Z,59.87
2019-06-26T21:03:59.356Z,60.33
2019-06-26T21:06:25.560Z,60.07
2019-06-26T21:08:51.865Z,60.04
2019-06-26T21:11:18.167Z,60.56
2019-06-26T21:13:45.350Z,60.42
2019-06-26T21:16:11.551Z,60.75
2019-06-26T21:18:37.829Z,60.60
2019-06-26T21:21:03.914Z,60.77
2019-06-26T21:23:30.005Z,61.11
2019-06-26T21:25:56.216Z,60.87
2019-06-26T21:28:22.521Z,61.27
2019-06-26T21:30:49.137Z,61.23
2019-06-26T21:33:15.319Z,61.39
2019-06-26T21:35:41.764Z,61.67
2019-06-26T21:38:08.155Z,61.74
2019-06-26T21:40:34.521Z,61.90
2019-06-26T21:43:01.805Z,61.62
2019-06-26T21:45:27.991Z,62.07
2019-06-26T21:47:54.162Z,62.45
2019-06-26T21:50:20.486Z,62.25
2019-06-26T21:52:48.087Z,62.89
2019-06-26T21:55:14.250Z,62.63
2019-06-26T21:57:58.803Z,62.97
2019-06-26T22:00:44.965Z,63.69
2019-06-26T22:03:29.953Z,63.47
2019-06-26T22:06:13.357Z,63.50
2019-06-26T22:08:57.982Z,63.69
2019-06-26T22:11:24.357Z,64.15
2019-06-26T22:13:50.657Z,64.39
2019-06-26T22:16:17.135Z,64.72
2019-06-26T22:18:43.754Z,65.05
2019-06-26T22:21:09.988Z,64.78
2019-06-26T22:23:36.141Z,65.03
2019-06-26T22:26:03.404Z,65.55
2019-06-26T22:28:29.596Z,65.72
2019-06-26T22:30:55.695Z,65.72
2019-06-26T22:33:22.122Z,66.00
2019-06-26T22:35:48.457Z,65.95
2019-06-26T22:38:14.776Z,65.60
2019-06-26T22:40:40.963Z,65.94
2019-06-26T22:43:07.351Z,65.71
2019-06-26T22:45:33.636Z,65.90
2019-06-26T22:47:59.919Z,65.58
2019-06-26T22:50:26.097Z,66.55
2019-06-26T22:52:52.210Z,66.00
2019-06-26T22:55:18.350Z,66.24
2019-06-26T22:57:44.629Z,66.47
2019-06-26T23:00:13.670Z,66.46
2019-06-26T23:02:39.946Z,66.89
2019-06-26T23:05:06.343Z,67.31
2019-06-26T23:07:32.730Z,67.38
2019-06-26T23:09:58.924Z,67.67
2019-06-26T23:12:25.020Z,68.30
2019-06-26T23:14:51.530Z,67.84
2019-06-26T23:17:17.601Z,67.96
2019-06-26T23:19:43.804Z,67.92
2019-06-26T23:22:09.972Z,67.93
2019-06-26T23:24:36.158Z,68.50
2019-06-26T23:27:02.362Z,68.30
2019-06-26T23:29:28.561Z,68.94
2019-06-26T23:31:54.673Z,68.99
2019-06-26T23:34:20.873Z,68.99
2019-06-26T23:36:47.064Z,68.53
2019-06-26T23:39:13.161Z,69.06
2019-06-26T23:41:39.342Z,69.86
2019-06-26T23:44:05.605Z,69.83
2019-06-26T23:46:31.686Z,69.47
2019-06-26T23:48:57.754Z,69.63
2019-06-26T23:51:23.865Z,69.54
2019-06-26T23:53:50.080Z,69.57
2019-06-26T23:56:16.232Z,69.71
2019-06-26T23:58:42.314Z,69.45
